createdAt,value
2023-01-10T00:00:26.534Z,3.60
2023-01-10T00:03:12.286Z,3.47
2023-01-10T00:05:57.394Z,3.80
2023-01-10T00:08:42.881Z,3.60
2023-01-10T00:11:27.822Z,3.60
2023-01-10T00:14:12.818Z,4.20
2023-01-10T00:16:58.057Z,4.67
2023-01-10T00:19:43.387Z,5.10
2023-01-10T00:22:28.872Z,5.23
2023-01-10T00:25:14.240Z,6.77
2023-01-10T00:27:59.878Z,7.00
2023-01-10T00:30:50.467Z,6.87
2023-01-10T00:33:36.870Z,6.70
2023-01-10T00:36:22.148Z,6.70
2023-01-10T00:39:07.008Z,7.07
2023-01-10T00:41:52.382Z,7.57
2023-01-10T00:44:37.817Z,7.67
2023-01-10T00:47:23.152Z,8.50
2023-01-10T00:50:09.114Z,9.37
2023-01-10T00:52:54.430Z,10.90
2023-01-10T00:55:39.387Z,11.53
2023-01-10T00:58:24.826Z,12.67
2023-01-10T01:01:09.734Z,11.90
2023-01-10T01:03:55.152Z,11.83
2023-01-10T01:06:40.464Z,13.33
2023-01-10T01:09:25.897Z,14.60
2023-01-10T01:12:10.749Z,13.77
2023-01-10T01:14:55.936Z,14.87
2023-01-10T01:17:41.215Z,15.27
2023-01-10T01:20:26.052Z,15.53
2023-01-10T01:23:11.558Z,17.20
2023-01-10T01:25:57.335Z,16.00
2023-01-10T01:28:42.253Z,16.50
2023-01-10T01:31:27.572Z,16.23
2023-01-10T01:34:12.942Z,16.17
2023-01-10T01:36:58.036Z,16.13
2023-01-10T01:39:43.373Z,16.37
2023-01-10T01:42:34.642Z,17.60
2023-01-10T01:45:22.804Z,15.27
2023-01-10T01:48:13.221Z,15.77
2023-01-10T01:51:16.594Z,14.33
2023-01-10T01:54:09.547Z,15.20
2023-01-10T01:57:01.223Z,14.57
2023-01-10T01:59:49.650Z,14.40
2023-01-10T02:02:41.422Z,13.47
2023-01-10T02:05:32.190Z,13.73
2023-01-10T02:08:17.596Z,12.63
2023-01-10T02:11:09.439Z,13.80
2023-01-10T02:13:54.881Z,12.20
2023-01-10T02:16:40.499Z,11.40
2023-01-10T02:19:49.536Z,11.20
2023-01-10T02:23:13.613Z,11.53
2023-01-10T02:25:59.002Z,11.20
2023-01-10T02:29:06.419Z,10.90
2023-01-10T02:32:07.710Z,9.63
2023-01-10T02:35:32.121Z,9.97
2023-01-10T02:38:41.529Z,8.90
2023-01-10T02:41:33.017Z,8.53
2023-01-10T02:44:24.633Z,9.30
2023-01-10T02:47:09.987Z,8.60
2023-01-10T02:49:55.001Z,8.00
2023-01-10T02:52:40.355Z,8.63
2023-01-10T02:55:50.744Z,8.40
2023-01-10T02:59:06.432Z,8.77
2023-01-10T03:01:59.870Z,9.50
2023-01-10T03:04:54.336Z,7.83
2023-01-10T03:08:01.226Z,8.73
2023-01-10T03:10:56.383Z,8.73
2023-01-10T03:13:49.863Z,8.73
2023-01-10T03:16:37.796Z,8.17
2023-01-10T03:22:39.295Z,8.97
2023-01-10T03:25:30.807Z,9.23
2023-01-10T03:28:43.955Z,9.50
2023-01-10T03:31:38.149Z,9.53
2023-01-10T03:34:24.855Z,10.13
2023-01-10T03:37:32.093Z,9.93
2023-01-10T03:40:33.031Z,9.67
2023-01-10T03:43:26.887Z,10.90
2023-01-10T03:46:47.943Z,10.07
2023-01-10T03:49:35.536Z,10.50
2023-01-10T03:52:21.789Z,11.53
2023-01-10T03:55:09.727Z,12.40
2023-01-10T03:57:54.962Z,12.43
2023-01-10T04:00:40.277Z,12.40
2023-01-10T04:03:25.615Z,13.00
2023-01-10T04:06:11.394Z,12.93
2023-01-10T04:08:56.732Z,12.23
2023-01-10T04:11:42.278Z,12.00
2023-01-10T04:14:27.888Z,12.67
2023-01-10T04:17:14.633Z,12.17
2023-01-10T04:19:59.783Z,11.47
2023-01-10T04:22:45.630Z,10.93
2023-01-10T04:25:31.023Z,11.40
2023-01-10T04:28:16.210Z,10.97
2023-01-10T04:31:01.921Z,11.47
2023-01-10T04:33:46.925Z,11.90
2023-01-10T04:36:31.808Z,11.00
2023-01-10T04:39:17.241Z,11.20
2023-01-10T04:42:02.304Z,11.57
2023-01-10T04:44:47.647Z,11.13
2023-01-10T04:47:32.996Z,11.20
2023-01-10T04:50:18.526Z,10.07
2023-01-10T04:53:03.903Z,11.60
2023-01-10T04:55:49.394Z,10.07
2023-01-10T04:58:38.294Z,10.10
2023-01-10T05:01:25.100Z,10.73
2023-01-10T05:04:10.397Z,10.73
2023-01-10T05:06:55.765Z,10.80
2023-01-10T05:09:41.094Z,9.80
2023-01-10T05:12:26.351Z,10.43
2023-01-10T05:15:11.701Z,10.70
2023-01-10T05:18:00.997Z,10.20
2023-01-10T05:20:45.825Z,10.57
2023-01-10T05:23:32.083Z,10.80
2023-01-10T05:26:21.831Z,10.10
2023-01-10T05:29:07.133Z,10.03
2023-01-10T05:31:52.729Z,8.90
2023-01-10T05:34:37.799Z,10.20
2023-01-10T05:37:23.227Z,9.60
2023-01-10T05:40:10.542Z,10.30
2023-01-10T05:42:55.458Z,8.80
2023-01-10T05:45:42.180Z,10.53
2023-01-10T05:48:27.611Z,10.23
2023-01-10T05:51:12.718Z,10.73
2023-01-10T05:53:58.111Z,10.57
2023-01-10T05:56:43.385Z,11.53
2023-01-10T05:59:28.934Z,11.33
2023-01-10T06:02:14.301Z,11.50
2023-01-10T06:04:59.745Z,10.73
2023-01-10T06:07:44.423Z,11.53
2023-01-10T06:10:29.484Z,12.27
2023-01-10T06:13:15.171Z,12.40
2023-01-10T06:16:00.389Z,12.03
2023-01-10T06:18:45.789Z,12.50
2023-01-10T06:21:30.870Z,11.93
2023-01-10T06:24:16.152Z,11.27
2023-01-10T06:27:01.499Z,12.43
2023-01-10T06:29:46.953Z,11.70
2023-01-10T06:32:32.241Z,12.77
2023-01-10T06:35:17.682Z,12.13
2023-01-10T06:38:03.455Z,12.53
2023-01-10T06:40:48.522Z,13.00
2023-01-10T06:43:33.995Z,11.90
2023-01-10T06:46:20.171Z,12.83
2023-01-10T06:49:05.578Z,13.30
2023-01-10T06:51:50.789Z,12.80
2023-01-10T06:54:36.112Z,12.20
2023-01-10T06:57:20.956Z,12.87
2023-01-10T07:00:09.594Z,13.50
2023-01-10T07:02:58.744Z,12.87
2023-01-10T07:05:44.225Z,14.13
2023-01-10T07:08:29.624Z,14.27
2023-01-10T07:11:16.013Z,14.20
2023-01-10T07:14:01.970Z,13.77
2023-01-10T07:16:46.905Z,13.70
2023-01-10T07:19:32.383Z,14.03
2023-01-10T07:22:17.940Z,13.80
2023-01-10T07:25:03.861Z,12.50
2023-01-10T07:27:49.429Z,13.27
2023-01-10T07:30:34.777Z,12.87
2023-01-10T07:33:20.101Z,12.50
2023-01-10T07:36:06.378Z,22.30
2023-01-10T07:38:51.567Z,12.30
2023-01-10T07:41:36.674Z,10.90
2023-01-10T07:44:21.564Z,11.90
2023-01-10T07:47:06.807Z,10.83
2023-01-10T07:49:52.425Z,10.87
2023-01-10T07:52:37.809Z,9.40
2023-01-10T07:55:23.217Z,9.57
2023-01-10T07:58:08.530Z,9.70
2023-01-10T08:00:58.488Z,9.00
2023-01-10T08:03:43.841Z,9.80
2023-01-10T08:06:28.938Z,9.50
2023-01-10T08:09:14.334Z,9.47
2023-01-10T08:11:59.748Z,9.40
2023-01-10T08:14:45.061Z,9.33
2023-01-10T08:17:35.795Z,9.53
2023-01-10T08:20:21.293Z,9.20
2023-01-10T08:23:06.560Z,8.97
2023-01-10T08:25:52.048Z,10.63
2023-01-10T08:28:37.336Z,9.63
2023-01-10T08:31:22.534Z,9.93
2023-01-10T08:34:07.854Z,9.07
2023-01-10T08:36:54.457Z,9.23
2023-01-10T08:39:39.755Z,9.80
2023-01-10T08:42:24.750Z,8.93
2023-01-10T08:45:10.697Z,10.40
2023-01-10T08:47:56.475Z,9.27
2023-01-10T08:50:41.635Z,9.73
2023-01-10T08:53:26.467Z,9.20
2023-01-10T08:56:11.904Z,9.90
2023-01-10T08:58:57.370Z,10.80
2023-01-10T09:01:42.848Z,10.20
2023-01-10T09:04:28.191Z,10.33
2023-01-10T09:07:13.648Z,10.67
2023-01-10T09:09:58.911Z,9.30
2023-01-10T09:12:44.348Z,10.20
2023-01-10T09:15:34.688Z,10.47
2023-01-10T09:18:21.391Z,10.57
2023-01-10T09:21:06.807Z,10.03
2023-01-10T09:23:52.307Z,9.07
2023-01-10T09:26:37.556Z,11.60
2023-01-10T09:29:22.452Z,9.13
2023-01-10T09:32:07.918Z,10.57
2023-01-10T09:34:53.459Z,10.53
2023-01-10T09:37:38.807Z,10.60
2023-01-10T09:40:27.305Z,10.50
2023-01-10T09:43:15.314Z,10.13
2023-01-10T09:46:42.272Z,10.57
2023-01-10T09:49:45.798Z,9.90
2023-01-10T09:52:34.589Z,10.37
2023-01-10T09:55:32.292Z,10.87
2023-01-10T09:58:19.263Z,10.13
2023-01-10T10:01:11.166Z,11.77
2023-01-10T10:04:07.412Z,11.33
2023-01-10T10:06:53.273Z,10.30
2023-01-10T10:09:38.355Z,11.90
2023-01-10T10:12:43.550Z,12.10
2023-01-10T10:16:00.604Z,11.93
2023-01-10T10:19:04.396Z,11.10
2023-01-10T10:22:07.211Z,10.90
2023-01-10T10:25:18.449Z,11.50
2023-01-10T10:28:21.804Z,10.70
2023-01-10T10:31:19.514Z,10.27
2023-01-10T10:34:33.538Z,11.10
2023-01-10T10:37:21.376Z,12.00
2023-01-10T10:40:17.384Z,12.00
2023-01-10T10:43:22.912Z,10.20
2023-01-10T10:46:13.019Z,11.70
2023-01-10T10:49:04.535Z,11.60
2023-01-10T10:51:53.502Z,10.63
2023-01-10T10:54:38.462Z,11.97
2023-01-10T10:57:26.942Z,11.90
2023-01-10T11:00:19.112Z,11.50
2023-01-10T11:03:26.560Z,11.30
2023-01-10T11:06:14.778Z,10.67
2023-01-10T11:09:01.729Z,11.13
2023-01-10T11:11:49.118Z,9.13
2023-01-10T11:14:50.591Z,11.70
2023-01-10T11:17:35.400Z,10.80
2023-01-10T11:20:20.821Z,10.90
2023-01-10T11:23:07.237Z,10.67
2023-01-10T11:25:52.296Z,10.17
2023-01-10T11:28:38.112Z,9.23
2023-01-10T11:31:28.624Z,10.03
2023-01-10T11:34:33.076Z,10.50
2023-01-10T11:37:20.443Z,9.87
2023-01-10T11:40:15.220Z,9.67
2023-01-10T11:43:03.026Z,8.30
2023-01-10T11:45:54.818Z,8.90
2023-01-10T11:49:08.588Z,9.03
2023-01-10T11:51:59.421Z,8.10
2023-01-10T11:54:45.145Z,7.07
2023-01-10T11:57:32.198Z,7.30
2023-01-10T12:00:17.921Z,8.37
2023-01-10T12:03:34.115Z,8.17
2023-01-10T12:06:19.344Z,9.47
2023-01-10T12:09:04.798Z,9.00
2023-01-10T12:12:01.601Z,8.37
2023-01-10T12:14:47.617Z,9.17
2023-01-10T12:17:35.978Z,7.93
2023-01-10T12:20:21.790Z,8.20
2023-01-10T12:23:12.019Z,7.20
2023-01-10T12:26:11.193Z,7.67
2023-01-10T12:28:59.724Z,8.47
2023-01-10T12:31:45.297Z,8.33
2023-01-10T12:34:42.082Z,6.63
2023-01-10T12:37:40.365Z,7.53
2023-01-10T12:40:41.905Z,8.67
2023-01-10T12:43:41.520Z,7.27
2023-01-10T12:47:09.185Z,7.10
2023-01-10T12:50:04.108Z,6.70
2023-01-10T12:53:10.805Z,6.30
2023-01-10T12:55:59.021Z,6.73
2023-01-10T12:58:49.606Z,6.87
2023-01-10T13:01:37.490Z,6.63
2023-01-10T13:04:25.343Z,6.70
2023-01-10T13:07:13.166Z,6.50
2023-01-10T13:10:01.012Z,6.60
2023-01-10T13:13:13.391Z,5.60
2023-01-10T13:16:16.777Z,5.63
2023-01-10T13:19:01.955Z,5.83
2023-01-10T13:21:47.479Z,6.50
2023-01-10T13:24:32.796Z,6.30
2023-01-10T13:27:20.159Z,6.20
2023-01-10T13:30:05.769Z,6.10
2023-01-10T13:32:59.285Z,6.27
2023-01-10T13:35:44.988Z,5.70
2023-01-10T13:38:36.516Z,5.80
2023-01-10T13:41:22.413Z,5.77
2023-01-10T13:44:15.023Z,5.57
2023-01-10T13:47:00.249Z,5.90
2023-01-10T13:49:45.462Z,5.03
2023-01-10T13:52:32.599Z,5.60
2023-01-10T13:55:40.566Z,5.30
2023-01-10T13:58:25.389Z,5.43
2023-01-10T14:01:36.524Z,4.67
2023-01-10T14:04:47.813Z,5.17
2023-01-10T14:07:42.714Z,5.07
2023-01-10T14:10:31.267Z,4.17
2023-01-10T14:13:22.970Z,5.07
2023-01-10T14:16:34.166Z,5.23
2023-01-10T14:19:31.221Z,5.00
2023-01-10T14:22:29.719Z,5.23
2023-01-10T14:25:20.695Z,4.67
2023-01-10T14:28:20.604Z,4.77
2023-01-10T14:31:24.031Z,4.87
2023-01-10T14:34:16.622Z,5.00
2023-01-10T14:37:16.568Z,5.43
2023-01-10T14:40:06.305Z,4.83
2023-01-10T14:42:52.927Z,4.47
2023-01-10T14:46:05.236Z,3.80
2023-01-10T14:48:53.041Z,4.10
2023-01-10T14:51:38.129Z,5.13
2023-01-10T14:54:22.997Z,4.63
2023-01-10T14:57:19.542Z,4.70
2023-01-10T15:00:17.601Z,4.37
2023-01-10T15:03:04.261Z,4.50
2023-01-10T15:05:52.313Z,4.70
2023-01-10T15:08:37.389Z,4.70
2023-01-10T15:11:24.127Z,4.53
2023-01-10T15:14:10.199Z,4.30
2023-01-10T15:16:58.840Z,4.37
2023-01-10T15:19:44.694Z,4.57
2023-01-10T15:22:33.271Z,3.87
2023-01-10T15:25:18.421Z,4.53
2023-01-10T15:28:18.322Z,3.93
2023-01-10T15:31:05.401Z,4.53
2023-01-10T15:33:50.601Z,3.80
2023-01-10T15:36:36.200Z,4.70
2023-01-10T15:39:28.784Z,4.63
2023-01-10T15:42:14.544Z,4.10
2023-01-10T15:45:37.276Z,4.50
2023-01-10T15:48:28.700Z,4.23
2023-01-10T15:51:35.042Z,4.70
2023-01-10T15:54:20.179Z,4.00
2023-01-10T15:57:19.000Z,4.67
2023-01-10T16:00:04.651Z,4.70
2023-01-10T16:02:50.453Z,4.77
2023-01-10T16:05:35.912Z,5.00
2023-01-10T16:08:24.394Z,4.40
2023-01-10T16:11:19.697Z,4.53
2023-01-10T16:14:04.798Z,4.07
2023-01-10T16:16:50.188Z,4.37
2023-01-10T16:19:35.438Z,3.93
2023-01-10T16:22:20.440Z,3.63
2023-01-10T16:25:05.951Z,4.40
2023-01-10T16:27:51.522Z,3.97
2023-01-10T16:30:36.815Z,3.70
2023-01-10T16:33:23.890Z,4.20
2023-01-10T16:36:17.862Z,3.60
2023-01-10T16:39:07.320Z,3.67
2023-01-10T16:41:52.588Z,3.50
2023-01-10T16:44:37.894Z,3.70
2023-01-10T16:47:22.901Z,3.60
2023-01-10T16:50:09.809Z,4.27
2023-01-10T16:52:54.979Z,4.10
2023-01-10T16:55:43.747Z,4.17
2023-01-10T16:58:28.869Z,3.33
2023-01-10T17:01:17.009Z,4.00
2023-01-10T17:04:02.201Z,3.50
2023-01-10T17:06:47.594Z,3.80
2023-01-10T17:09:32.727Z,3.33
2023-01-10T17:12:18.702Z,4.23
2023-01-10T17:15:06.620Z,4.20
2023-01-10T17:17:51.780Z,4.33
2023-01-10T17:20:36.798Z,3.27
2023-01-10T17:23:22.473Z,3.80
2023-01-10T17:26:08.055Z,3.97
2023-01-10T17:28:53.270Z,3.97
2023-01-10T17:31:38.258Z,3.70
2023-01-10T17:34:23.473Z,3.50
2023-01-10T17:37:08.851Z,3.93
2023-01-10T17:39:54.167Z,3.63
2023-01-10T17:42:39.606Z,3.63
2023-01-10T17:45:24.968Z,4.10
2023-01-10T17:48:11.307Z,4.17
2023-01-10T17:50:59.519Z,3.90
2023-01-10T17:53:44.857Z,4.20
2023-01-10T17:56:30.137Z,4.67
2023-01-10T17:59:15.537Z,4.73
2023-01-10T18:02:01.021Z,3.90
2023-01-10T18:04:46.234Z,4.27
2023-01-10T18:07:31.547Z,3.57
2023-01-10T18:10:16.884Z,4.40
2023-01-10T18:13:03.439Z,4.60
2023-01-10T18:15:49.774Z,4.67
2023-01-10T18:18:34.937Z,4.27
2023-01-10T18:21:20.247Z,4.17
2023-01-10T18:24:05.963Z,4.87
2023-01-10T18:26:51.041Z,4.33
2023-01-10T18:29:36.337Z,4.07
2023-01-10T18:32:23.657Z,4.70
2023-01-10T18:35:09.047Z,4.20
2023-01-10T18:37:54.138Z,4.27
2023-01-10T18:40:40.536Z,4.30
2023-01-10T18:43:25.532Z,3.93
2023-01-10T18:46:13.881Z,4.70
2023-01-10T18:48:58.938Z,4.80
2023-01-10T18:51:44.286Z,4.87
2023-01-10T18:54:29.704Z,4.37
2023-01-10T18:57:14.986Z,4.37
2023-01-10T19:00:00.371Z,4.40
2023-01-10T19:02:46.429Z,3.83
2023-01-10T19:05:31.756Z,4.10
2023-01-10T19:08:17.588Z,4.50
2023-01-10T19:11:13.404Z,3.47
2023-01-10T19:14:00.203Z,4.20
2023-01-10T19:16:45.477Z,4.37
2023-01-10T19:19:31.113Z,4.30
2023-01-10T19:22:16.767Z,4.83
2023-01-10T19:25:02.168Z,4.23
2023-01-10T19:27:47.556Z,4.57
2023-01-10T19:30:32.952Z,4.90
2023-01-10T19:33:18.618Z,4.40
2023-01-10T19:36:05.912Z,5.03
2023-01-10T19:38:58.365Z,4.27
2023-01-10T19:41:43.555Z,4.43
2023-01-10T19:44:28.915Z,4.13
2023-01-10T19:47:14.416Z,4.60
2023-01-10T19:49:59.737Z,4.73
2023-01-10T19:52:45.365Z,4.23
2023-01-10T19:55:30.755Z,4.40
2023-01-10T19:58:16.171Z,5.03
2023-01-10T20:01:19.123Z,5.87
2023-01-10T20:04:04.555Z,4.70
2023-01-10T20:06:49.792Z,4.67
2023-01-10T20:09:34.792Z,4.27
2023-01-10T20:12:20.106Z,4.00
2023-01-10T20:15:06.000Z,3.70
2023-01-10T20:17:51.332Z,4.10
2023-01-10T20:20:36.623Z,3.83
2023-01-10T20:23:22.273Z,3.60
2023-01-10T20:26:15.231Z,4.20
2023-01-10T20:29:02.355Z,4.10
2023-01-10T20:31:49.046Z,3.10
2023-01-10T20:34:34.071Z,3.17
2023-01-10T20:37:19.474Z,3.10
2023-01-10T20:40:04.980Z,2.73
2023-01-10T20:42:50.314Z,3.03
2023-01-10T20:45:35.671Z,3.03
2023-01-10T20:48:21.447Z,2.80
2023-01-10T20:51:07.622Z,2.67
2023-01-10T20:53:53.001Z,2.73
2023-01-10T20:56:38.551Z,2.70
2023-01-10T20:59:25.900Z,3.00
2023-01-10T21:02:12.014Z,2.73
2023-01-10T21:04:57.007Z,2.60
2023-01-10T21:07:41.742Z,2.50
2023-01-10T21:10:26.995Z,2.17
2023-01-10T21:13:12.994Z,2.07
2023-01-10T21:15:58.257Z,2.50
2023-01-10T21:18:43.708Z,1.80
2023-01-10T21:21:28.522Z,2.00
2023-01-10T21:24:13.653Z,2.10
2023-01-10T21:26:58.933Z,1.80
2023-01-10T21:29:44.282Z,1.97
2023-01-10T21:32:29.389Z,1.83
2023-01-10T21:35:14.837Z,1.90
2023-01-10T21:38:00.142Z,1.90
2023-01-10T21:40:45.094Z,2.00
2023-01-10T21:43:31.703Z,1.90
2023-01-10T21:46:17.076Z,1.77
2023-01-10T21:49:03.214Z,1.80
2023-01-10T21:51:48.665Z,1.93
2023-01-10T21:54:33.715Z,1.73
2023-01-10T21:57:19.048Z,2.27
2023-01-10T22:00:04.883Z,2.00
2023-01-10T22:02:49.890Z,2.03
2023-01-10T22:05:35.203Z,2.10
2023-01-10T22:08:19.984Z,2.30
2023-01-10T22:11:04.930Z,1.80
2023-01-10T22:13:50.670Z,2.00
2023-01-10T22:16:35.760Z,1.90
2023-01-10T22:19:21.218Z,1.87
2023-01-10T22:22:07.038Z,1.97
2023-01-10T22:24:52.047Z,1.60
2023-01-10T22:27:37.260Z,2.00
2023-01-10T22:30:22.148Z,1.60
2023-01-10T22:33:07.518Z,1.80
2023-01-10T22:35:52.325Z,1.90
2023-01-10T22:38:37.271Z,1.90
2023-01-10T22:41:23.890Z,1.60
2023-01-10T22:44:17.794Z,1.57
2023-01-10T22:47:02.940Z,1.70
2023-01-10T22:49:48.340Z,1.87
2023-01-10T22:52:33.135Z,1.97
2023-01-10T22:55:18.197Z,2.10
2023-01-10T22:58:03.402Z,1.30
2023-01-10T23:00:49.086Z,1.50
2023-01-10T23:03:34.510Z,1.27
2023-01-10T23:06:20.454Z,1.50
2023-01-10T23:09:05.913Z,1.53
2023-01-10T23:11:50.959Z,1.70
2023-01-10T23:14:35.842Z,1.70
2023-01-10T23:17:21.278Z,1.57
2023-01-10T23:20:07.001Z,1.57
2023-01-10T23:22:52.313Z,1.40
2023-01-10T23:25:37.691Z,1.60
2023-01-10T23:28:35.639Z,1.70
2023-01-10T23:31:22.800Z,1.60
2023-01-10T23:34:08.313Z,1.33
2023-01-10T23:36:53.305Z,1.60
2023-01-10T23:39:38.388Z,1.90
2023-01-10T23:42:23.213Z,1.50
2023-01-10T23:45:09.310Z,1.47
2023-01-10T23:47:54.505Z,1.60
2023-01-10T23:50:39.354Z,1.70
2023-01-10T23:53:25.110Z,1.57
2023-01-10T23:56:13.185Z,1.40
2023-01-10T23:58:58.499Z,1.60
